Terminal Aerodrome Forecast
Issued by NWS

Home | Current Version | Previous Version | Text Only | Print | Product List | Glossary On
Versions: 1 2 3 4 5 6 7 8 9 10 11 12 13 14 15 16 17 18 19 20 21 22
000
FTUS45 KRIW 280500
TAFJAC
TAF
KJAC 280532Z 2806/2906 VRB05KT P6SM VCSH OVC035
      TEMPO 2806/2810 3SM -SN BKN025
     FM281000 VRB05KT 1 1/2SM -SN OVC012
     FM281700 20006KT 5SM -SN SCT012 OVC024
     FM282000 20006KT P6SM SCT024 BKN035
     FM290100 36006KT P6SM BKN050
      AMD LTD TO CLD VIS AND WIND=

USA.gov is the U.S. government's official web portal to all federal, state and local government web resources and services.